Musella, Georgia
Current Conditions -  °F | °C
As of 1:55 PM on Friday 31 Oct 2014 (Local Time) from KOPN Reporting Station
Overcast Overcast  
Wind Chill: 64°   Ceiling: 9000
Heat Index: 64°   Visibility: 10mi
Dew Point: 43°   Wind: 8mph
Humidity: 45%   Direction: 320°NW
Pressure: 29.91"   Gusts: NA
Location:  32.8°N, 84.03°W
Report Text: KOPN 311755Z AUTO 32007KT 10SM OVC090 18/06 A2991 RMK AO2
Loading
Personal Weather Stations






























Interactive Weather Map
Tropical Storm Tracking
New forecast layout! Learn more

10-Day Weather Forecast

Advertisements
Track Severe Weather on mobile